createdAt,value
2018-11-29T00:00:39.480Z,256.83
2018-11-29T00:03:09.883Z,276.53
2018-11-29T00:05:43.995Z,258.60
2018-11-29T00:08:18.393Z,270.00
2018-11-29T00:10:46.643Z,244.83
2018-11-29T00:13:14.704Z,287.47
2018-11-29T00:15:42.735Z,261.37
2018-11-29T00:18:13.210Z,345.90
2018-11-29T00:20:41.179Z,278.00
2018-11-29T00:23:09.225Z,292.53
2018-11-29T00:25:37.295Z,256.40
2018-11-29T00:28:06.033Z,263.70
2018-11-29T00:30:34.267Z,262.30
2018-11-29T00:33:02.338Z,282.13
2018-11-29T00:35:30.424Z,267.17
2018-11-29T00:37:58.555Z,278.90
2018-11-29T00:40:27.918Z,271.57
2018-11-29T00:42:56.117Z,280.37
2018-11-29T00:45:24.159Z,277.63
2018-11-29T00:47:52.351Z,276.90
2018-11-29T00:50:20.780Z,268.87
2018-11-29T00:52:52.178Z,253.40
2018-11-29T00:55:21.759Z,257.77
2018-11-29T00:57:50.054Z,250.50
2018-11-29T01:00:20.244Z,259.23
2018-11-29T01:02:48.564Z,258.53
2018-11-29T01:05:20.496Z,267.67
2018-11-29T01:07:49.542Z,271.90
2018-11-29T01:10:18.110Z,275.10
2018-11-29T01:12:46.886Z,242.67
2018-11-29T01:15:17.942Z,248.80
2018-11-29T01:17:47.149Z,259.87
2018-11-29T01:20:16.923Z,248.33
2018-11-29T01:22:44.938Z,289.10
2018-11-29T01:25:14.155Z,309.03
2018-11-29T01:27:43.767Z,314.00
2018-11-29T01:30:13.094Z,299.17
2018-11-29T01:32:41.116Z,313.20
2018-11-29T01:35:10.958Z,291.60
2018-11-29T01:37:38.999Z,277.20
2018-11-29T01:40:10.028Z,292.07
2018-11-29T01:42:37.966Z,276.47
2018-11-29T01:45:05.991Z,277.83
2018-11-29T01:47:33.979Z,278.13
2018-11-29T01:50:01.954Z,258.53
2018-11-29T01:52:29.904Z,292.80
2018-11-29T01:54:57.827Z,280.30
2018-11-29T01:57:25.808Z,288.27
2018-11-29T01:59:53.839Z,271.63
2018-11-29T02:02:21.767Z,302.50
2018-11-29T02:04:50.062Z,282.57
2018-11-29T02:07:24.735Z,287.30
2018-11-29T02:09:57.283Z,287.40
2018-11-29T02:12:25.292Z,363.57
2018-11-29T02:14:53.235Z,304.20
2018-11-29T02:17:21.215Z,298.33
2018-11-29T02:19:49.142Z,300.00
2018-11-29T02:22:17.114Z,282.27
2018-11-29T02:24:45.191Z,316.43
2018-11-29T02:27:13.152Z,285.00
2018-11-29T02:29:41.147Z,295.10
2018-11-29T02:32:09.176Z,301.70
2018-11-29T02:34:37.170Z,292.93
2018-11-29T02:37:05.405Z,302.57
2018-11-29T02:39:33.439Z,265.30
2018-11-29T02:42:01.383Z,272.97
2018-11-29T02:44:29.387Z,269.23
2018-11-29T02:46:57.518Z,273.10
2018-11-29T02:49:25.480Z,297.00
2018-11-29T02:51:53.411Z,292.63
2018-11-29T02:54:21.650Z,277.73
2018-11-29T02:56:49.628Z,277.83
2018-11-29T02:59:17.568Z,272.67
2018-11-29T03:01:47.873Z,267.27
2018-11-29T03:04:17.440Z,277.67
2018-11-29T03:06:45.400Z,289.40
2018-11-29T03:09:13.380Z,299.63
2018-11-29T03:11:41.415Z,244.03
2018-11-29T03:14:09.462Z,254.37
2018-11-29T03:16:37.476Z,249.67
2018-11-29T03:19:05.863Z,252.40
2018-11-29T03:21:33.909Z,269.97
2018-11-29T03:24:02.014Z,268.30
2018-11-29T03:26:30.092Z,272.70
2018-11-29T03:28:59.604Z,269.17
2018-11-29T03:31:27.627Z,270.53
2018-11-29T03:33:55.557Z,287.37
2018-11-29T03:36:23.585Z,285.00
2018-11-29T03:38:51.626Z,314.60
2018-11-29T03:41:19.596Z,287.50
2018-11-29T03:43:47.575Z,271.20
2018-11-29T03:46:15.506Z,270.90
2018-11-29T03:48:43.427Z,292.80
2018-11-29T03:51:11.360Z,266.37
2018-11-29T03:53:39.352Z,308.83
2018-11-29T03:56:07.310Z,254.03
2018-11-29T03:58:35.571Z,307.23
2018-11-29T04:01:03.591Z,287.53
2018-11-29T04:03:31.640Z,305.47
2018-11-29T04:05:59.732Z,225.17
2018-11-29T04:08:27.681Z,265.80
2018-11-29T04:10:55.770Z,235.97
2018-11-29T04:13:23.730Z,281.27
2018-11-29T04:15:51.648Z,258.30
2018-11-29T04:18:19.583Z,313.97
2018-11-29T04:20:47.586Z,230.20
2018-11-29T04:23:15.595Z,275.97
2018-11-29T04:25:43.523Z,251.80
2018-11-29T04:28:11.467Z,314.87
2018-11-29T04:30:40.015Z,251.80
2018-11-29T04:33:07.923Z,266.97
2018-11-29T04:35:35.860Z,227.13
2018-11-29T04:38:04.098Z,268.00
2018-11-29T04:40:32.599Z,223.53
2018-11-29T04:43:00.645Z,251.43
2018-11-29T04:45:48.319Z,256.50
2018-11-29T04:48:16.383Z,284.27
2018-11-29T04:50:44.352Z,254.67
2018-11-29T04:53:12.246Z,293.60
2018-11-29T04:55:40.148Z,278.43
2018-11-29T04:58:08.183Z,260.93
2018-11-29T05:00:36.887Z,258.87
2018-11-29T05:03:05.256Z,281.43
2018-11-29T05:05:33.266Z,234.20
2018-11-29T05:08:01.151Z,290.17
2018-11-29T05:10:29.063Z,269.03
2018-11-29T05:12:57.009Z,332.50
2018-11-29T05:15:24.981Z,269.97
2018-11-29T05:17:52.928Z,258.10
2018-11-29T05:20:20.850Z,239.03
2018-11-29T05:22:48.792Z,235.27
2018-11-29T05:25:17.122Z,252.30
2018-11-29T05:27:44.746Z,235.80
2018-11-29T05:30:13.683Z,259.70
2018-11-29T05:32:41.778Z,230.87
2018-11-29T05:35:11.051Z,261.80
2018-11-29T05:37:39.027Z,272.23
2018-11-29T05:40:10.213Z,235.93
2018-11-29T05:42:38.531Z,248.57
2018-11-29T05:45:07.826Z,277.03
2018-11-29T05:47:35.820Z,267.13
2018-11-29T05:50:06.105Z,250.40
2018-11-29T05:55:10.615Z,269.37
2018-11-29T05:57:38.555Z,228.37
2018-11-29T06:00:10.373Z,233.07
2018-11-29T06:02:38.451Z,259.63
2018-11-29T06:05:08.307Z,218.30
2018-11-29T06:07:36.606Z,234.53
2018-11-29T06:10:04.875Z,247.40
2018-11-29T06:12:33.669Z,230.73
2018-11-29T06:15:01.930Z,209.90
2018-11-29T06:17:29.877Z,264.73
2018-11-29T06:19:57.829Z,224.37
2018-11-29T06:22:26.082Z,243.73
2018-11-29T06:24:54.038Z,236.93
2018-11-29T06:27:22.215Z,252.30
2018-11-29T06:29:50.204Z,231.00
2018-11-29T06:32:18.232Z,240.00
2018-11-29T06:34:46.135Z,235.67
2018-11-29T06:37:16.462Z,266.60
2018-11-29T06:39:44.341Z,226.17
2018-11-29T06:42:12.346Z,224.90
2018-11-29T06:44:40.335Z,231.03
2018-11-29T06:47:08.226Z,242.63
2018-11-29T06:49:36.198Z,255.17
2018-11-29T06:52:05.187Z,200.30
2018-11-29T06:54:33.223Z,202.17
2018-11-29T06:57:01.148Z,208.83
2018-11-29T06:59:29.310Z,231.10
2018-11-29T07:01:57.240Z,218.30
2018-11-29T07:04:25.339Z,215.13
2018-11-29T07:06:56.521Z,256.70
2018-11-29T07:09:24.421Z,239.00
2018-11-29T07:11:52.443Z,229.97
2018-11-29T07:14:20.824Z,206.87
2018-11-29T07:16:48.710Z,186.53
2018-11-29T07:19:16.658Z,228.17
2018-11-29T07:21:51.475Z,214.67
2018-11-29T07:24:19.679Z,258.07
2018-11-29T07:26:49.418Z,234.47
2018-11-29T07:29:17.278Z,228.83
2018-11-29T07:31:45.587Z,197.40
2018-11-29T07:34:13.723Z,238.07
2018-11-29T07:36:41.715Z,232.83
2018-11-29T07:39:10.060Z,203.63
2018-11-29T07:41:39.464Z,230.00
2018-11-29T07:44:11.161Z,243.20
2018-11-29T07:46:39.290Z,239.23
2018-11-29T07:49:07.346Z,220.37
2018-11-29T07:51:35.558Z,244.90
2018-11-29T07:54:03.607Z,244.37
2018-11-29T07:56:31.509Z,242.90
2018-11-29T07:58:59.489Z,248.60
2018-11-29T08:01:28.705Z,247.93
2018-11-29T08:03:56.763Z,256.57
2018-11-29T08:06:24.655Z,278.53
2018-11-29T08:08:52.696Z,262.87
2018-11-29T08:11:20.901Z,276.77
2018-11-29T08:13:48.798Z,261.20
2018-11-29T08:16:16.782Z,261.60
2018-11-29T08:18:44.690Z,278.07
2018-11-29T08:21:12.598Z,228.67
2018-11-29T08:23:40.536Z,283.43
2018-11-29T08:26:08.459Z,250.63
2018-11-29T08:28:39.287Z,277.13
2018-11-29T08:31:07.478Z,234.63
2018-11-29T08:33:40.864Z,269.43
2018-11-29T08:36:10.201Z,236.53
2018-11-29T08:38:39.214Z,269.23
2018-11-29T08:41:07.758Z,258.10
2018-11-29T08:43:36.131Z,269.47
2018-11-29T08:46:04.228Z,242.40
2018-11-29T08:48:32.507Z,292.10
2018-11-29T08:53:34.884Z,271.50
2018-11-29T08:56:08.743Z,273.53
2018-11-29T08:58:36.997Z,271.27
2018-11-29T09:01:06.329Z,253.53
2018-11-29T09:03:34.224Z,262.77
2018-11-29T09:06:02.179Z,240.80
2018-11-29T09:08:36.860Z,267.87
2018-11-29T09:11:05.320Z,245.80
2018-11-29T09:13:33.528Z,301.10
2018-11-29T09:16:01.434Z,251.80
2018-11-29T09:18:31.336Z,326.10
2018-11-29T09:20:59.379Z,269.40
2018-11-29T09:23:27.382Z,274.20
2018-11-29T09:25:56.251Z,252.80
2018-11-29T09:28:24.379Z,297.20
2018-11-29T09:30:54.064Z,254.10
2018-11-29T09:33:22.117Z,272.47
2018-11-29T09:35:50.043Z,266.87
2018-11-29T09:38:21.717Z,288.63
2018-11-29T09:40:56.247Z,263.37
2018-11-29T09:43:24.233Z,287.47
2018-11-29T09:45:52.138Z,262.17
2018-11-29T09:48:20.031Z,280.53
2018-11-29T09:50:48.008Z,250.37
2018-11-29T09:53:15.979Z,289.13
2018-11-29T09:55:43.988Z,264.10
2018-11-29T09:58:14.104Z,319.80
2018-11-29T10:00:42.531Z,278.13
2018-11-29T10:03:15.019Z,280.50
2018-11-29T10:05:44.501Z,257.73
2018-11-29T10:08:15.239Z,308.77
2018-11-29T10:10:43.170Z,258.27
2018-11-29T10:13:11.401Z,302.23
2018-11-29T10:15:39.460Z,261.03
2018-11-29T10:18:08.619Z,290.03
2018-11-29T10:20:36.537Z,245.57
2018-11-29T10:23:05.959Z,269.10
2018-11-29T10:25:34.061Z,269.47
2018-11-29T10:28:07.658Z,250.43
2018-11-29T10:30:47.196Z,233.27
2018-11-29T10:33:15.625Z,284.07
2018-11-29T10:35:44.455Z,234.40
2018-11-29T10:38:12.359Z,266.50
2018-11-29T10:40:41.780Z,244.90
2018-11-29T10:43:10.187Z,297.20
2018-11-29T10:45:38.183Z,243.97
2018-11-29T10:48:11.335Z,274.13
2018-11-29T10:50:39.444Z,225.87
2018-11-29T10:53:08.632Z,283.43
2018-11-29T10:55:36.987Z,254.37
2018-11-29T10:58:06.691Z,260.73
2018-11-29T11:00:40.136Z,234.57
2018-11-29T11:03:13.699Z,260.23
2018-11-29T11:05:45.802Z,233.63
2018-11-29T11:08:13.997Z,260.60
2018-11-29T11:10:41.872Z,232.10
2018-11-29T11:13:09.808Z,270.97
2018-11-29T11:15:38.167Z,228.83
2018-11-29T11:18:07.741Z,269.97
2018-11-29T11:20:37.452Z,269.33
2018-11-29T11:23:08.920Z,263.53
2018-11-29T11:25:38.400Z,235.73
2018-11-29T11:28:08.075Z,265.90
2018-11-29T11:30:39.621Z,246.30
2018-11-29T11:33:07.577Z,268.73
2018-11-29T11:35:35.555Z,260.03
2018-11-29T11:38:03.448Z,234.07
2018-11-29T11:40:31.425Z,248.73
2018-11-29T11:42:59.331Z,257.57
2018-11-29T11:45:27.519Z,246.20
2018-11-29T11:48:03.150Z,259.20
2018-11-29T11:50:26.003Z,281.57
2018-11-29T11:52:55.048Z,237.07
2018-11-29T11:55:29.959Z,221.07
2018-11-29T11:57:52.754Z,249.67
2018-11-29T12:00:25.193Z,250.47
2018-11-29T12:03:07.405Z,256.67
2018-11-29T12:05:35.967Z,229.20
2018-11-29T12:08:06.199Z,271.23
2018-11-29T12:10:35.323Z,251.90
2018-11-29T12:13:03.400Z,268.40
2018-11-29T12:15:31.500Z,245.10
2018-11-29T12:17:59.601Z,248.40
2018-11-29T12:20:27.571Z,242.30
2018-11-29T12:22:55.547Z,252.00
2018-11-29T12:25:23.488Z,256.07
2018-11-29T12:27:52.133Z,238.00
2018-11-29T12:30:24.599Z,234.87
2018-11-29T12:32:56.555Z,263.87
2018-11-29T12:35:24.883Z,247.67
2018-11-29T12:37:53.313Z,253.67
2018-11-29T12:40:21.053Z,236.33
2018-11-29T12:42:48.958Z,255.23
2018-11-29T12:45:17.157Z,246.07
2018-11-29T12:47:45.368Z,257.03
2018-11-29T12:50:18.923Z,262.77
2018-11-29T12:52:47.128Z,261.47
2018-11-29T12:55:16.412Z,249.33
2018-11-29T12:57:44.472Z,243.93
2018-11-29T13:00:17.695Z,243.57
2018-11-29T13:02:49.903Z,240.83
2018-11-29T13:05:18.352Z,305.50
2018-11-29T13:07:46.307Z,277.90
2018-11-29T13:10:16.145Z,229.83
2018-11-29T13:12:44.072Z,274.13
2018-11-29T13:15:16.439Z,228.63
2018-11-29T13:17:44.594Z,261.27
2018-11-29T13:20:14.010Z,257.73
2018-11-29T13:22:42.020Z,256.80
2018-11-29T13:25:14.540Z,214.27
2018-11-29T13:27:42.450Z,225.97
2018-11-29T13:30:13.834Z,271.97
2018-11-29T13:32:43.906Z,231.97
2018-11-29T13:35:16.264Z,262.37
2018-11-29T13:37:49.564Z,228.53
2018-11-29T13:42:45.470Z,249.97
2018-11-29T13:45:13.688Z,253.23
2018-11-29T13:47:42.031Z,214.70
2018-11-29T13:50:14.041Z,249.83
2018-11-29T13:52:42.536Z,243.10
2018-11-29T13:55:12.777Z,244.00
2018-11-29T13:57:42.262Z,253.83
2018-11-29T14:00:25.821Z,239.77
2018-11-29T14:03:01.103Z,239.87
2018-11-29T14:05:29.092Z,236.40
2018-11-29T14:08:03.128Z,264.43
2018-11-29T14:10:31.624Z,239.53
2018-11-29T14:12:59.671Z,227.27
2018-11-29T14:15:28.365Z,235.00
2018-11-29T14:17:57.194Z,282.17
2018-11-29T14:20:25.339Z,233.87
2018-11-29T14:22:53.334Z,251.37
2018-11-29T14:25:21.515Z,256.00
2018-11-29T14:27:51.364Z,264.63
2018-11-29T14:30:22.503Z,243.90
2018-11-29T14:32:51.058Z,234.80
2018-11-29T14:35:19.131Z,255.77
2018-11-29T14:37:47.035Z,251.37
2018-11-29T14:40:18.503Z,238.03
2018-11-29T14:42:46.434Z,234.17
2018-11-29T14:45:16.047Z,212.83
2018-11-29T14:47:44.244Z,234.67
2018-11-29T14:50:20.729Z,230.03
2018-11-29T14:52:49.509Z,286.07
2018-11-29T14:55:17.455Z,236.97
2018-11-29T14:57:45.467Z,225.87
2018-11-29T15:00:13.814Z,217.43
2018-11-29T15:02:42.120Z,230.73
2018-11-29T15:05:19.272Z,248.80
2018-11-29T15:10:21.400Z,217.37
2018-11-29T15:12:49.275Z,252.30
2018-11-29T15:15:17.207Z,239.97
2018-11-29T15:17:46.251Z,259.33
2018-11-29T15:20:20.071Z,286.87
2018-11-29T15:22:48.041Z,205.77
2018-11-29T15:25:16.036Z,202.00
2018-11-29T15:27:44.007Z,206.33
2018-11-29T15:30:14.624Z,224.67
2018-11-29T15:32:42.567Z,199.77
2018-11-29T15:35:10.584Z,227.77
2018-11-29T15:37:38.566Z,219.57
2018-11-29T15:40:12.963Z,211.10
2018-11-29T15:42:44.478Z,200.37
2018-11-29T15:45:19.916Z,256.77
2018-11-29T15:47:48.463Z,205.43
2018-11-29T15:50:17.017Z,267.80
2018-11-29T15:52:45.011Z,221.13
2018-11-29T15:55:15.153Z,237.37
2018-11-29T15:57:43.940Z,241.87
2018-11-29T16:00:15.870Z,278.30
2018-11-29T16:02:44.807Z,240.77
2018-11-29T16:05:12.744Z,229.53
2018-11-29T16:07:40.922Z,225.13
2018-11-29T16:10:13.074Z,254.33
2018-11-29T16:12:41.264Z,219.40
2018-11-29T16:15:14.181Z,230.80
2018-11-29T16:17:42.515Z,225.37
2018-11-29T16:20:13.302Z,216.43
2018-11-29T16:22:41.348Z,234.80
2018-11-29T16:25:10.807Z,229.67
2018-11-29T16:27:38.809Z,229.73
2018-11-29T16:30:17.756Z,220.00
2018-11-29T16:32:45.699Z,250.53
2018-11-29T16:35:13.600Z,223.90
2018-11-29T16:37:41.553Z,221.17
2018-11-29T16:40:09.504Z,222.50
2018-11-29T16:42:37.516Z,235.00
2018-11-29T16:45:09.541Z,228.03
2018-11-29T16:47:37.511Z,245.23
2018-11-29T16:50:08.279Z,236.23
2018-11-29T16:52:36.230Z,241.17
2018-11-29T16:55:05.518Z,228.30
2018-11-29T16:57:33.554Z,272.83
2018-11-29T17:00:01.592Z,271.90
2018-11-29T17:02:29.535Z,252.07
2018-11-29T17:05:01.532Z,285.90
2018-11-29T17:07:29.776Z,261.00
2018-11-29T17:09:58.455Z,246.03
2018-11-29T17:12:26.749Z,256.40
2018-11-29T17:14:54.715Z,273.80
2018-11-29T17:17:22.663Z,246.03
2018-11-29T17:22:25.252Z,243.37
2018-11-29T17:24:53.234Z,245.37
2018-11-29T17:27:21.180Z,249.87
2018-11-29T17:29:49.092Z,246.37
2018-11-29T17:32:17.339Z,248.17
2018-11-29T17:34:45.372Z,302.30
2018-11-29T17:37:13.467Z,286.87
2018-11-29T17:39:41.781Z,271.00
2018-11-29T17:42:09.843Z,233.60
2018-11-29T17:44:37.759Z,246.87
2018-11-29T17:47:09.175Z,244.33
2018-11-29T17:49:37.151Z,242.97
2018-11-29T17:52:05.509Z,245.27
2018-11-29T17:54:34.146Z,254.67
2018-11-29T17:57:02.163Z,240.60
2018-11-29T17:59:30.163Z,261.43
2018-11-29T18:01:58.130Z,248.73
2018-11-29T18:04:26.084Z,260.70
2018-11-29T18:06:54.082Z,261.63
2018-11-29T18:09:22.154Z,251.57
2018-11-29T18:11:50.112Z,264.13
2018-11-29T18:14:18.751Z,278.17
2018-11-29T18:16:46.706Z,267.50
2018-11-29T18:19:14.636Z,260.67
2018-11-29T18:21:43.215Z,288.90
2018-11-29T18:24:10.944Z,264.53
2018-11-29T18:26:39.807Z,279.97
2018-11-29T18:29:08.009Z,247.73
2018-11-29T18:31:35.881Z,248.13
2018-11-29T18:34:03.887Z,279.73
2018-11-29T18:39:09.094Z,247.50
2018-11-29T18:41:37.182Z,269.20
2018-11-29T18:44:05.943Z,244.10
2018-11-29T18:46:33.897Z,238.60
2018-11-29T18:49:01.807Z,263.17
2018-11-29T18:51:29.775Z,247.57
2018-11-29T18:53:57.795Z,288.07
2018-11-29T18:56:25.820Z,266.60
2018-11-29T18:58:54.609Z,268.47
2018-11-29T19:01:22.531Z,256.20
2018-11-29T19:03:54.579Z,282.17
2018-11-29T19:06:22.553Z,263.43
2018-11-29T19:08:50.476Z,293.17
2018-11-29T19:11:18.458Z,262.50
2018-11-29T19:13:46.391Z,320.57
2018-11-29T19:16:14.342Z,257.93
2018-11-29T19:18:42.743Z,284.40
2018-11-29T19:21:10.683Z,249.73
2018-11-29T19:23:38.683Z,274.63
2018-11-29T19:26:07.086Z,233.53
2018-11-29T19:28:35.103Z,282.43
2018-11-29T19:31:03.177Z,245.90
2018-11-29T19:33:31.147Z,267.60
2018-11-29T19:35:59.230Z,231.90
2018-11-29T19:38:27.215Z,284.10
2018-11-29T19:40:55.190Z,238.70
2018-11-29T19:43:23.079Z,284.30
2018-11-29T19:45:51.049Z,251.83
2018-11-29T19:48:19.122Z,265.93
2018-11-29T19:50:47.131Z,257.47
2018-11-29T19:53:17.903Z,283.33
2018-11-29T19:55:47.292Z,274.97
2018-11-29T19:58:15.424Z,258.83
2018-11-29T20:00:44.517Z,296.50
2018-11-29T20:06:08.718Z,239.57
2018-11-29T20:08:36.756Z,270.57
2018-11-29T20:11:05.216Z,261.10
2018-11-29T20:13:33.314Z,265.77
2018-11-29T20:16:01.380Z,242.47
2018-11-29T20:18:29.712Z,282.87
2018-11-29T20:23:31.966Z,273.37
2018-11-29T20:26:00.267Z,261.80
2018-11-29T20:28:29.183Z,268.97
2018-11-29T20:30:57.149Z,248.47
2018-11-29T20:33:26.451Z,282.53
2018-11-29T20:35:54.411Z,238.40
2018-11-29T20:38:22.363Z,274.00
2018-11-29T20:40:50.378Z,268.93
2018-11-29T20:43:18.305Z,280.73
2018-11-29T20:45:55.430Z,236.10
2018-11-29T20:48:26.985Z,271.27
2018-11-29T20:50:56.562Z,265.83
2018-11-29T20:53:26.824Z,296.23
2018-11-29T20:55:54.811Z,250.57
2018-11-29T20:58:22.847Z,301.83
2018-11-29T21:00:50.845Z,270.00
2018-11-29T21:03:19.112Z,298.80
2018-11-29T21:05:47.152Z,256.77
2018-11-29T21:08:15.143Z,327.03
2018-11-29T21:10:43.161Z,273.10
2018-11-29T21:13:11.397Z,308.67
2018-11-29T21:15:41.262Z,284.97
2018-11-29T21:18:12.978Z,310.60
2018-11-29T21:20:41.979Z,256.43
2018-11-29T21:29:56.229Z,235.07
2018-11-29T21:32:27.393Z,249.73
2018-11-29T21:34:55.661Z,264.10
2018-11-29T21:37:23.624Z,274.37
2018-11-29T21:39:51.846Z,289.97
2018-11-29T21:42:19.839Z,314.87
2018-11-29T21:44:47.779Z,284.47
2018-11-29T21:47:15.747Z,292.67
2018-11-29T21:49:43.960Z,294.97
2018-11-29T21:52:11.901Z,296.47
2018-11-29T21:54:39.952Z,288.30
2018-11-29T21:57:07.915Z,328.23
2018-11-29T21:59:35.803Z,290.90
2018-11-29T22:02:03.775Z,280.60
2018-11-29T22:04:31.757Z,290.63
2018-11-29T22:07:01.589Z,274.07
2018-11-29T22:09:29.519Z,270.40
2018-11-29T22:11:57.678Z,291.93
2018-11-29T22:14:25.655Z,301.90
2018-11-29T22:16:53.589Z,281.37
2018-11-29T22:19:21.627Z,286.33
2018-11-29T22:21:49.684Z,299.37
2018-11-29T22:24:17.650Z,309.73
2018-11-29T22:26:45.933Z,315.07
2018-11-29T22:29:13.863Z,320.70
2018-11-29T22:31:41.883Z,306.60
2018-11-29T22:34:09.825Z,346.67
2018-11-29T22:36:38.532Z,326.33
2018-11-29T22:39:08.747Z,334.93
2018-11-29T22:41:36.686Z,317.83
2018-11-29T22:44:04.977Z,338.00
2018-11-29T22:46:32.937Z,278.43
2018-11-29T22:49:00.843Z,299.77
2018-11-29T22:51:28.843Z,302.30
2018-11-29T22:53:56.828Z,304.57
2018-11-29T22:56:24.772Z,309.90
2018-11-29T22:58:52.674Z,312.63
2018-11-29T23:01:25.563Z,258.60
2018-11-29T23:03:54.504Z,323.07
2018-11-29T23:06:22.555Z,317.93
2018-11-29T23:08:50.511Z,267.53
2018-11-29T23:11:20.389Z,351.67
2018-11-29T23:13:48.408Z,356.10
2018-11-29T23:16:19.286Z,304.40
2018-11-29T23:18:47.387Z,407.47
2018-11-29T23:21:15.384Z,361.40
2018-11-29T23:23:43.382Z,368.83
2018-11-29T23:26:11.415Z,344.87
2018-11-29T23:28:39.339Z,378.10
2018-11-29T23:31:08.105Z,379.83
2018-11-29T23:33:36.055Z,391.90
2018-11-29T23:36:04.251Z,342.90
2018-11-29T23:38:32.290Z,394.97
2018-11-29T23:41:00.292Z,367.47
2018-11-29T23:43:28.219Z,388.43
2018-11-29T23:45:56.164Z,360.10
2018-11-29T23:48:24.078Z,405.97
2018-11-29T23:50:52.013Z,366.77
2018-11-29T23:53:21.079Z,379.40
2018-11-29T23:55:53.191Z,346.27
2018-11-29T23:58:21.168Z,386.40
